createdAt,value
2022-09-23T00:01:19.324Z,0.38
2022-09-23T00:06:25.619Z,0.33
2022-09-23T00:11:32.554Z,0.22
2022-09-23T00:16:38.929Z,0.38
2022-09-23T00:21:46.554Z,0.31
2022-09-23T00:26:53.094Z,0.30
2022-09-23T00:32:01.710Z,0.40
2022-09-23T00:37:08.107Z,0.28
2022-09-23T00:42:14.746Z,0.41
2022-09-23T00:47:21.120Z,0.31
2022-09-23T00:52:28.056Z,0.34
2022-09-23T00:57:34.444Z,0.36
2022-09-23T01:02:42.162Z,0.37
2022-09-23T01:07:48.585Z,0.35
2022-09-23T01:12:56.617Z,0.36
2022-09-23T01:18:02.974Z,0.33
2022-09-23T01:23:10.469Z,0.28
2022-09-23T01:28:16.895Z,0.37
2022-09-23T01:33:24.274Z,0.48
2022-09-23T01:38:30.599Z,0.34
2022-09-23T01:43:38.149Z,0.23
2022-09-23T01:48:44.676Z,0.26
2022-09-23T01:53:52.056Z,0.25
2022-09-23T01:58:58.438Z,0.26
2022-09-23T02:04:05.367Z,0.31
2022-09-23T02:09:11.710Z,0.41
2022-09-23T02:14:18.764Z,0.30
2022-09-23T02:19:25.152Z,0.25
2022-09-23T02:24:32.087Z,0.44
2022-09-23T02:29:38.434Z,0.33
2022-09-23T02:34:45.323Z,0.27
2022-09-23T02:39:51.671Z,0.26
2022-09-23T02:44:58.329Z,0.34
2022-09-23T02:50:05.897Z,0.27
2022-09-23T02:55:12.717Z,0.29
2022-09-23T03:00:19.108Z,0.30
2022-09-23T03:05:26.124Z,0.42
2022-09-23T03:10:32.475Z,0.18
2022-09-23T03:15:39.662Z,0.43
2022-09-23T03:20:46.121Z,0.28
2022-09-23T03:25:52.602Z,0.21
2022-09-23T03:30:58.946Z,0.42
2022-09-23T03:36:05.680Z,0.31
2022-09-23T03:41:12.066Z,0.26
2022-09-23T03:46:18.843Z,0.23
2022-09-23T03:51:25.186Z,0.26
2022-09-23T03:56:32.046Z,0.48
2022-09-23T04:01:38.697Z,0.29
2022-09-23T04:06:45.693Z,0.24
2022-09-23T04:11:52.098Z,0.35
2022-09-23T04:16:59.475Z,0.38
2022-09-23T04:22:05.861Z,0.31
2022-09-23T04:27:12.499Z,0.33
2022-09-23T04:32:18.848Z,0.29
2022-09-23T04:37:25.467Z,0.48
2022-09-23T04:42:31.912Z,0.32
2022-09-23T04:47:38.690Z,0.24
2022-09-23T04:52:45.031Z,0.28
2022-09-23T04:57:51.843Z,0.42
2022-09-23T05:02:58.262Z,0.40
2022-09-23T05:08:05.149Z,0.29
2022-09-23T05:13:11.493Z,0.22
2022-09-23T05:18:20.821Z,0.27
2022-09-23T05:23:24.303Z,0.29
2022-09-23T05:28:30.952Z,0.30
2022-09-23T05:33:37.290Z,0.28
2022-09-23T05:38:43.923Z,0.26
2022-09-23T05:43:50.276Z,0.16
2022-09-23T05:49:01.848Z,0.25
2022-09-23T05:54:03.112Z,0.18
2022-09-23T05:59:10.075Z,0.20
2022-09-23T06:04:16.363Z,0.40
2022-09-23T06:09:24.202Z,0.32
2022-09-23T06:14:30.689Z,0.41
2022-09-23T06:19:38.408Z,0.46
2022-09-23T06:24:46.507Z,0.35
2022-09-23T06:29:54.273Z,0.23
2022-09-23T06:35:02.019Z,0.29
2022-09-23T06:40:08.870Z,0.22
2022-09-23T06:45:16.257Z,0.28
2022-09-23T06:50:22.864Z,0.31
2022-09-23T06:55:29.205Z,0.23
2022-09-23T07:00:37.587Z,0.29
2022-09-23T07:05:46.119Z,0.49
2022-09-23T07:10:52.694Z,0.22
2022-09-23T07:16:00.714Z,0.31
2022-09-23T07:21:10.794Z,0.38
2022-09-23T07:26:07.207Z,0.30
2022-09-23T07:31:15.271Z,0.35
2022-09-23T07:36:20.427Z,0.34
2022-09-23T07:41:27.936Z,0.34
2022-09-23T07:46:34.513Z,0.26
2022-09-23T07:51:41.826Z,0.30
2022-09-23T07:56:48.323Z,0.43
2022-09-23T08:01:55.710Z,0.39
2022-09-23T08:07:02.057Z,0.39
2022-09-23T08:12:11.644Z,0.26
2022-09-23T08:17:17.738Z,0.28
2022-09-23T08:22:25.217Z,0.26
2022-09-23T08:27:31.576Z,0.23
2022-09-23T08:32:38.371Z,0.38
2022-09-23T08:37:44.705Z,0.62
2022-09-23T08:42:51.586Z,0.34
2022-09-23T08:47:57.969Z,0.39
2022-09-23T08:53:04.721Z,0.29
2022-09-23T08:58:24.886Z,0.37
2022-09-23T09:03:17.450Z,0.40
2022-09-23T09:08:23.966Z,0.43
2022-09-23T09:13:32.455Z,0.56
2022-09-23T09:18:38.868Z,0.51
2022-09-23T09:23:46.014Z,0.40
2022-09-23T09:28:52.353Z,0.33
2022-09-23T09:33:59.056Z,0.38
2022-09-23T09:39:05.608Z,0.40
2022-09-23T09:44:13.516Z,0.57
2022-09-23T09:49:19.880Z,0.52
2022-09-23T09:54:27.230Z,0.49
2022-09-23T09:59:33.750Z,0.54
2022-09-23T10:04:41.095Z,0.41
2022-09-23T10:09:47.445Z,0.37
2022-09-23T10:14:54.966Z,0.46
2022-09-23T10:20:01.315Z,0.35
2022-09-23T10:25:08.628Z,0.38
2022-09-23T10:30:15.013Z,0.40
2022-09-23T10:35:21.743Z,0.36
2022-09-23T10:40:28.105Z,0.49
2022-09-23T10:45:36.670Z,0.41
2022-09-23T10:50:41.108Z,0.37
2022-09-23T10:55:47.989Z,0.43
2022-09-23T11:00:54.635Z,0.36
2022-09-23T11:06:01.423Z,0.38
2022-09-23T11:11:07.943Z,0.64
2022-09-23T11:16:14.924Z,0.70
2022-09-23T11:21:21.387Z,0.43
2022-09-23T11:26:32.175Z,0.35
2022-09-23T11:31:33.983Z,0.39
2022-09-23T11:36:40.794Z,0.44
2022-09-23T11:41:47.296Z,0.45
2022-09-23T11:46:54.596Z,0.56
2022-09-23T11:52:00.976Z,0.48
2022-09-23T11:57:07.874Z,0.57
2022-09-23T12:02:19.427Z,0.38
2022-09-23T12:07:20.468Z,0.62
2022-09-23T12:12:29.385Z,0.64
2022-09-23T12:17:36.172Z,0.44
2022-09-23T12:22:42.562Z,0.42
2022-09-23T12:27:52.482Z,0.39
2022-09-23T12:32:58.865Z,0.40
2022-09-23T12:38:05.689Z,0.38
2022-09-23T12:43:12.107Z,0.42
2022-09-23T12:48:20.070Z,0.50
2022-09-23T12:53:26.420Z,0.56
2022-09-23T12:58:33.882Z,0.34
2022-09-23T13:03:40.265Z,0.46
2022-09-23T13:08:49.325Z,0.37
2022-09-23T13:13:55.663Z,0.35
2022-09-23T13:19:03.163Z,0.51
2022-09-23T13:24:09.515Z,0.72
2022-09-23T13:29:16.777Z,0.52
2022-09-23T13:34:23.205Z,0.54
2022-09-23T13:39:29.913Z,0.49
2022-09-23T13:44:36.296Z,0.46
2022-09-23T13:49:43.622Z,0.54
2022-09-23T13:54:50.058Z,0.65
2022-09-23T13:59:56.591Z,0.43
2022-09-23T14:05:03.070Z,0.53
2022-09-23T14:10:09.772Z,0.46
2022-09-23T14:15:16.429Z,0.56
2022-09-23T14:20:23.162Z,0.60
2022-09-23T14:25:29.652Z,0.51
2022-09-23T14:30:37.982Z,0.38
2022-09-23T14:35:45.272Z,0.49
2022-09-23T14:40:57.944Z,0.54
2022-09-23T14:45:54.313Z,0.50
2022-09-23T14:51:01.076Z,0.61
2022-09-23T14:56:07.487Z,0.63
2022-09-23T15:01:14.417Z,0.43
2022-09-23T15:06:21.803Z,0.51
2022-09-23T15:11:28.530Z,0.45
2022-09-23T15:16:34.822Z,0.61
2022-09-23T15:21:41.594Z,0.46
2022-09-23T15:26:48.035Z,0.60
2022-09-23T15:31:56.263Z,0.73
2022-09-23T15:37:03.400Z,0.75
2022-09-23T15:42:10.508Z,0.47
2022-09-23T15:47:17.155Z,0.52
2022-09-23T15:52:23.779Z,0.77
2022-09-23T15:57:30.123Z,0.48
2022-09-23T16:02:36.906Z,0.48
2022-09-23T16:12:44.731Z,0.48
2022-09-23T16:17:51.068Z,0.35
2022-09-23T16:22:58.010Z,0.59
2022-09-23T16:28:04.399Z,0.47
2022-09-23T16:33:14.192Z,0.49
2022-09-23T16:38:20.643Z,0.62
2022-09-23T16:43:27.498Z,0.40
2022-09-23T16:48:35.585Z,0.50
2022-09-23T16:54:08.112Z,0.45
2022-09-23T16:59:14.830Z,0.49
2022-09-23T17:04:47.867Z,0.54
2022-09-23T17:09:13.566Z,0.41
2022-09-23T17:14:21.288Z,0.45
2022-09-23T17:19:28.804Z,0.42
2022-09-23T17:24:36.867Z,0.60
2022-09-23T17:29:43.767Z,0.81
2022-09-23T17:34:51.836Z,0.73
2022-09-23T17:39:58.547Z,1.02
2022-09-23T17:45:07.213Z,0.88
2022-09-23T17:50:13.933Z,1.34
2022-09-23T17:55:23.094Z,0.64
2022-09-23T18:00:30.125Z,0.67
2022-09-23T18:05:37.759Z,0.54
2022-09-23T18:10:44.972Z,0.88
2022-09-23T18:15:52.916Z,0.58
2022-09-23T18:21:00.169Z,0.70
2022-09-23T18:26:06.629Z,0.83
2022-09-23T18:31:13.028Z,0.66
2022-09-23T18:36:19.859Z,0.47
2022-09-23T18:41:26.523Z,0.58
2022-09-23T18:46:33.273Z,0.71
2022-09-23T18:51:40.008Z,0.67
2022-09-23T18:56:47.216Z,0.69
2022-09-23T19:01:53.766Z,0.47
2022-09-23T19:07:03.841Z,0.66
2022-09-23T19:12:09.707Z,0.55
2022-09-23T19:17:16.520Z,0.64
2022-09-23T19:22:22.889Z,0.53
2022-09-23T19:27:29.593Z,0.56
2022-09-23T19:32:35.945Z,0.54
2022-09-23T19:37:43.520Z,0.59
2022-09-23T19:42:49.846Z,0.63
2022-09-23T19:47:57.401Z,0.61
2022-09-23T19:53:03.755Z,0.38
2022-09-23T19:58:12.721Z,0.61
2022-09-23T20:03:19.108Z,0.69
2022-09-23T20:08:25.762Z,0.65
2022-09-23T20:13:32.135Z,0.69
2022-09-23T20:18:38.839Z,0.70
2022-09-23T20:23:45.183Z,0.49
2022-09-23T20:28:51.772Z,0.53
2022-09-23T20:33:58.173Z,0.64
2022-09-23T20:39:05.486Z,0.85
2022-09-23T20:44:11.817Z,0.78
2022-09-23T20:49:19.355Z,1.05
2022-09-23T20:54:25.710Z,0.54
2022-09-23T20:59:33.045Z,0.80
2022-09-23T21:04:39.369Z,0.90
2022-09-23T21:09:46.726Z,0.56
2022-09-23T21:14:53.079Z,0.65
2022-09-23T21:20:00.601Z,0.82
2022-09-23T21:25:27.349Z,0.58
2022-09-23T21:30:13.084Z,0.65
2022-09-23T21:35:19.428Z,0.56
2022-09-23T21:40:26.687Z,0.56
2022-09-23T21:45:32.974Z,0.86
2022-09-23T21:50:39.571Z,0.59
2022-09-23T21:55:45.907Z,0.80
2022-09-23T22:00:52.679Z,0.56
2022-09-23T22:05:58.916Z,0.63
2022-09-23T22:11:07.554Z,0.69
2022-09-23T22:16:13.933Z,0.59
2022-09-23T22:21:20.721Z,0.62
2022-09-23T22:26:27.058Z,0.60
2022-09-23T22:31:33.710Z,0.69
2022-09-23T22:36:39.991Z,0.66
2022-09-23T22:41:46.636Z,0.66
2022-09-23T22:46:53.046Z,0.52
2022-09-23T22:51:59.696Z,0.82
2022-09-23T22:57:06.025Z,0.98
2022-09-23T23:02:12.647Z,0.67
2022-09-23T23:07:20.271Z,0.53
2022-09-23T23:12:28.053Z,0.63
2022-09-23T23:17:34.397Z,0.70
2022-09-23T23:22:41.119Z,0.51
2022-09-23T23:27:47.505Z,0.78
2022-09-23T23:32:54.320Z,0.71
2022-09-23T23:38:00.659Z,0.60
2022-09-23T23:43:07.550Z,0.56
2022-09-23T23:48:13.911Z,0.88
2022-09-23T23:53:20.591Z,0.80
2022-09-23T23:58:27.014Z,0.86
